sensor_id;sensor_type;location;lat;lon;timestamp;pressure;altitude;pressure_sealevel;temperature;humidity
76660;BME280;65579;45.534;6.212;2023-01-16T00:00:07;97720.23;;;3.34;52.81
76660;BME280;65579;45.534;6.212;2023-01-16T00:02:31;97718.05;;;3.76;51.96
76660;BME280;65579;45.534;6.212;2023-01-16T00:04:56;97714.97;;;4.01;51.76
76660;BME280;65579;45.534;6.212;2023-01-16T00:07:21;97708.34;;;3.73;51.40
76660;BME280;65579;45.534;6.212;2023-01-16T00:09:47;97695.38;;;4.26;51.51
76660;BME280;65579;45.534;6.212;2023-01-16T00:12:12;97691.48;;;3.40;52.94
76660;BME280;65579;45.534;6.212;2023-01-16T00:14:37;97684.88;;;3.93;51.16
76660;BME280;65579;45.534;6.212;2023-01-16T00:17:03;97678.07;;;4.58;50.04
76660;BME280;65579;45.534;6.212;2023-01-16T00:19:29;97673.91;;;4.49;50.13
76660;BME280;65579;45.534;6.212;2023-01-16T00:21:54;97671.26;;;4.51;49.22
76660;BME280;65579;45.534;6.212;2023-01-16T00:24:20;97672.38;;;3.26;50.89
76660;BME280;65579;45.534;6.212;2023-01-16T00:26:48;97667.80;;;3.79;51.18
76660;BME280;65579;45.534;6.212;2023-01-16T00:29:11;97659.28;;;3.57;50.55
76660;BME280;65579;45.534;6.212;2023-01-16T00:31:36;97657.50;;;3.49;51.04
76660;BME280;65579;45.534;6.212;2023-01-16T00:34:02;97661.27;;;3.02;51.95
76660;BME280;65579;45.534;6.212;2023-01-16T00:36:27;97658.37;;;2.23;53.97
76660;BME280;65579;45.534;6.212;2023-01-16T00:38:53;97654.49;;;2.16;54.39
76660;BME280;65579;45.534;6.212;2023-01-16T00:41:19;97644.33;;;2.73;53.78
76660;BME280;65579;45.534;6.212;2023-01-16T00:43:44;97636.52;;;2.38;54.32
76660;BME280;65579;45.534;6.212;2023-01-16T00:46:09;97631.87;;;2.38;55.65
76660;BME280;65579;45.534;6.212;2023-01-16T00:48:35;97627.43;;;2.64;56.39
76660;BME280;65579;45.534;6.212;2023-01-16T00:51:01;97622.51;;;1.54;59.68
76660;BME280;65579;45.534;6.212;2023-01-16T00:53:26;97625.75;;;1.16;59.54
76660;BME280;65579;45.534;6.212;2023-01-16T00:55:52;97616.20;;;1.85;58.23
76660;BME280;65579;45.534;6.212;2023-01-16T00:58:17;97611.27;;;1.27;57.90
76660;BME280;65579;45.534;6.212;2023-01-16T01:00:43;97602.07;;;1.95;57.46
76660;BME280;65579;45.534;6.212;2023-01-16T01:03:08;97601.02;;;1.87;56.48
76660;BME280;65579;45.534;6.212;2023-01-16T01:05:36;97598.68;;;1.72;56.61
76660;BME280;65579;45.534;6.212;2023-01-16T01:07:58;97593.91;;;2.53;55.62
76660;BME280;65579;45.534;6.212;2023-01-16T01:10:23;97587.19;;;1.96;56.41
76660;BME280;65579;45.534;6.212;2023-01-16T01:12:53;97585.99;;;1.44;57.58
76660;BME280;65579;45.534;6.212;2023-01-16T01:15:14;97583.32;;;1.31;58.10
76660;BME280;65579;45.534;6.212;2023-01-16T01:17:40;97578.23;;;1.46;58.96
76660;BME280;65579;45.534;6.212;2023-01-16T01:20:06;97577.23;;;1.14;59.28
76660;BME280;65579;45.534;6.212;2023-01-16T01:22:30;97570.39;;;0.96;59.41
76660;BME280;65579;45.534;6.212;2023-01-16T01:24:55;97567.66;;;1.40;59.00
76660;BME280;65579;45.534;6.212;2023-01-16T01:27:21;97558.89;;;2.29;56.34
76660;BME280;65579;45.534;6.212;2023-01-16T01:29:47;97555.29;;;1.65;57.05
76660;BME280;65579;45.534;6.212;2023-01-16T01:32:12;97542.84;;;1.38;56.98
76660;BME280;65579;45.534;6.212;2023-01-16T01:34:38;97540.29;;;1.94;54.84
76660;BME280;65579;45.534;6.212;2023-01-16T01:37:05;97537.12;;;2.48;53.69
76660;BME280;65579;45.534;6.212;2023-01-16T01:39:29;97529.81;;;2.47;54.05
76660;BME280;65579;45.534;6.212;2023-01-16T01:41:54;97521.40;;;2.84;52.91
76660;BME280;65579;45.534;6.212;2023-01-16T01:46:47;97505.68;;;3.47;50.22
76660;BME280;65579;45.534;6.212;2023-01-16T01:49:19;97499.86;;;2.31;51.73
76660;BME280;65579;45.534;6.212;2023-01-16T01:51:39;97495.51;;;2.58;52.36
76660;BME280;65579;45.534;6.212;2023-01-16T01:54:04;97491.90;;;2.37;52.69
76660;BME280;65579;45.534;6.212;2023-01-16T01:56:31;97494.03;;;2.04;55.29
76660;BME280;65579;45.534;6.212;2023-01-16T01:58:58;97489.71;;;1.79;56.37
76660;BME280;65579;45.534;6.212;2023-01-16T02:01:20;97483.49;;;1.51;57.16
76660;BME280;65579;45.534;6.212;2023-01-16T02:03:49;97473.12;;;1.88;54.94
76660;BME280;65579;45.534;6.212;2023-01-16T02:06:16;97463.26;;;2.09;54.09
76660;BME280;65579;45.534;6.212;2023-01-16T02:08:36;97453.26;;;2.30;53.88
76660;BME280;65579;45.534;6.212;2023-01-16T02:11:05;97438.36;;;2.13;52.92
76660;BME280;65579;45.534;6.212;2023-01-16T02:13:26;97438.48;;;1.89;53.48
76660;BME280;65579;45.534;6.212;2023-01-16T02:15:52;97432.15;;;2.99;53.15
76660;BME280;65579;45.534;6.212;2023-01-16T02:18:17;97433.05;;;3.76;50.52
76660;BME280;65579;45.534;6.212;2023-01-16T02:20:51;97424.98;;;3.16;50.89
76660;BME280;65579;45.534;6.212;2023-01-16T02:23:29;97419.70;;;2.84;51.27
76660;BME280;65579;45.534;6.212;2023-01-16T02:25:53;97410.74;;;2.57;52.68
76660;BME280;65579;45.534;6.212;2023-01-16T02:28:13;97407.05;;;2.37;53.92
76660;BME280;65579;45.534;6.212;2023-01-16T02:30:35;97409.02;;;1.33;57.39
76660;BME280;65579;45.534;6.212;2023-01-16T02:32:57;97402.98;;;2.01;55.87
76660;BME280;65579;45.534;6.212;2023-01-16T02:35:27;97396.34;;;0.78;56.70
76660;BME280;65579;45.534;6.212;2023-01-16T02:37:44;97395.48;;;0.80;58.10
76660;BME280;65579;45.534;6.212;2023-01-16T02:40:16;97386.48;;;0.59;58.80
76660;BME280;65579;45.534;6.212;2023-01-16T02:42:36;97380.17;;;0.95;58.41
76660;BME280;65579;45.534;6.212;2023-01-16T02:45:01;97374.07;;;1.51;57.66
76660;BME280;65579;45.534;6.212;2023-01-16T02:47:25;97363.78;;;1.50;55.45
76660;BME280;65579;45.534;6.212;2023-01-16T02:49:49;97352.07;;;2.52;53.77
76660;BME280;65579;45.534;6.212;2023-01-16T02:52:15;97345.54;;;2.62;52.43
76660;BME280;65579;45.534;6.212;2023-01-16T02:54:45;97344.14;;;3.26;52.27
76660;BME280;65579;45.534;6.212;2023-01-16T02:57:06;97332.92;;;3.26;51.19
76660;BME280;65579;45.534;6.212;2023-01-16T02:59:29;97324.26;;;2.41;53.62
76660;BME280;65579;45.534;6.212;2023-01-16T03:01:56;97318.47;;;1.62;54.87
76660;BME280;65579;45.534;6.212;2023-01-16T03:04:39;97313.84;;;1.65;56.55
76660;BME280;65579;45.534;6.212;2023-01-16T03:06:49;97304.44;;;2.42;53.76
76660;BME280;65579;45.534;6.212;2023-01-16T03:09:22;97295.81;;;3.08;52.20
76660;BME280;65579;45.534;6.212;2023-01-16T03:11:40;97286.13;;;2.70;51.46
76660;BME280;65579;45.534;6.212;2023-01-16T03:14:11;97273.79;;;2.83;52.09
76660;BME280;65579;45.534;6.212;2023-01-16T03:16:32;97259.75;;;1.34;55.64
76660;BME280;65579;45.534;6.212;2023-01-16T03:19:03;97238.56;;;1.67;54.26
76660;BME280;65579;45.534;6.212;2023-01-16T03:21:25;97225.84;;;2.60;53.04
76660;BME280;65579;45.534;6.212;2023-01-16T03:23:51;97220.73;;;1.25;56.57
76660;BME280;65579;45.534;6.212;2023-01-16T03:26:15;97218.85;;;1.53;56.39
76660;BME280;65579;45.534;6.212;2023-01-16T03:28:40;97214.20;;;0.71;58.46
76660;BME280;65579;45.534;6.212;2023-01-16T03:31:07;97214.67;;;1.23;56.56
76660;BME280;65579;45.534;6.212;2023-01-16T03:33:32;97208.33;;;2.30;54.01
76660;BME280;65579;45.534;6.212;2023-01-16T03:35:54;97194.27;;;2.63;51.95
76660;BME280;65579;45.534;6.212;2023-01-16T03:38:17;97176.32;;;2.49;51.77
76660;BME280;65579;45.534;6.212;2023-01-16T03:40:44;97166.99;;;2.83;51.85
76660;BME280;65579;45.534;6.212;2023-01-16T03:43:11;97156.67;;;3.10;50.75
76660;BME280;65579;45.534;6.212;2023-01-16T03:45:38;97151.84;;;2.73;50.88
76660;BME280;65579;45.534;6.212;2023-01-16T03:48:02;97148.79;;;1.92;52.50
76660;BME280;65579;45.534;6.212;2023-01-16T03:50:26;97139.50;;;2.65;52.00
76660;BME280;65579;45.534;6.212;2023-01-16T03:52:53;97132.27;;;2.83;52.07
76660;BME280;65579;45.534;6.212;2023-01-16T03:55:17;97128.32;;;2.13;52.50
76660;BME280;65579;45.534;6.212;2023-01-16T03:57:46;97123.92;;;1.96;53.54
76660;BME280;65579;45.534;6.212;2023-01-16T04:00:08;97115.30;;;1.90;54.58
76660;BME280;65579;45.534;6.212;2023-01-16T04:02:37;97106.62;;;1.98;53.64
76660;BME280;65579;45.534;6.212;2023-01-16T04:05:02;97094.50;;;1.74;54.50
76660;BME280;65579;45.534;6.212;2023-01-16T04:07:28;97077.59;;;1.80;54.49
76660;BME280;65579;45.534;6.212;2023-01-16T04:09:53;97063.14;;;2.01;53.03
76660;BME280;65579;45.534;6.212;2023-01-16T04:12:15;97048.35;;;2.41;52.42
76660;BME280;65579;45.534;6.212;2023-01-16T04:14:41;97039.00;;;3.35;50.44
76660;BME280;65579;45.534;6.212;2023-01-16T04:17:06;97031.36;;;2.42;52.13
76660;BME280;65579;45.534;6.212;2023-01-16T04:19:33;97029.63;;;2.66;52.52
76660;BME280;65579;45.534;6.212;2023-01-16T04:21:57;97032.39;;;3.11;52.33
76660;BME280;65579;45.534;6.212;2023-01-16T04:24:22;97031.68;;;2.73;51.77
76660;BME280;65579;45.534;6.212;2023-01-16T04:26:47;97027.55;;;3.20;50.83
76660;BME280;65579;45.534;6.212;2023-01-16T04:29:13;97027.40;;;2.23;54.58
76660;BME280;65579;45.534;6.212;2023-01-16T04:31:39;97022.93;;;1.44;54.16
76660;BME280;65579;45.534;6.212;2023-01-16T04:34:04;97013.25;;;1.42;54.43
76660;BME280;65579;45.534;6.212;2023-01-16T04:36:30;96996.34;;;1.48;55.18
76660;BME280;65579;45.534;6.212;2023-01-16T04:38:55;96980.15;;;1.61;53.36
76660;BME280;65579;45.534;6.212;2023-01-16T04:41:21;96960.09;;;1.32;54.29
76660;BME280;65579;45.534;6.212;2023-01-16T04:43:46;96946.55;;;1.96;53.02
76660;BME280;65579;45.534;6.212;2023-01-16T04:46:11;96938.09;;;2.29;52.26
76660;BME280;65579;45.534;6.212;2023-01-16T04:48:37;96933.48;;;2.63;51.48
76660;BME280;65579;45.534;6.212;2023-01-16T04:51:04;96930.55;;;3.22;50.38
76660;BME280;65579;45.534;6.212;2023-01-16T04:53:29;96920.02;;;3.00;49.83
76660;BME280;65579;45.534;6.212;2023-01-16T04:55:54;96906.43;;;2.59;50.62
76660;BME280;65579;45.534;6.212;2023-01-16T04:58:19;96893.85;;;2.19;52.55
76660;BME280;65579;45.534;6.212;2023-01-16T05:00:45;96875.77;;;1.47;54.34
76660;BME280;65579;45.534;6.212;2023-01-16T05:03:10;96872.02;;;0.67;56.87
76660;BME280;65579;45.534;6.212;2023-01-16T05:05:37;96866.62;;;0.58;56.03
76660;BME280;65579;45.534;6.212;2023-01-16T05:08:01;96862.75;;;1.07;56.46
76660;BME280;65579;45.534;6.212;2023-01-16T05:10:26;96863.76;;;0.11;57.73
76660;BME280;65579;45.534;6.212;2023-01-16T05:12:52;96853.38;;;-0.32;59.97
76660;BME280;65579;45.534;6.212;2023-01-16T05:15:18;96850.36;;;-0.53;61.27
76660;BME280;65579;45.534;6.212;2023-01-16T05:17:44;96848.11;;;0.03;60.73
76660;BME280;65579;45.534;6.212;2023-01-16T05:20:10;96850.07;;;-0.41;61.97
76660;BME280;65579;45.534;6.212;2023-01-16T05:22:35;96845.41;;;-0.52;61.92
76660;BME280;65579;45.534;6.212;2023-01-16T05:25:00;96839.79;;;0.22;58.02
76660;BME280;65579;45.534;6.212;2023-01-16T05:27:26;96838.94;;;0.92;56.82
76660;BME280;65579;45.534;6.212;2023-01-16T05:29:52;96825.27;;;1.54;54.25
76660;BME280;65579;45.534;6.212;2023-01-16T05:32:17;96825.94;;;-0.24;57.89
76660;BME280;65579;45.534;6.212;2023-01-16T05:34:43;96810.10;;;-0.40;60.11
76660;BME280;65579;45.534;6.212;2023-01-16T05:37:08;96800.82;;;-0.21;56.50
76660;BME280;65579;45.534;6.212;2023-01-16T05:39:34;96783.23;;;0.25;54.36
76660;BME280;65579;45.534;6.212;2023-01-16T05:42:00;96778.93;;;0.90;54.45
76660;BME280;65579;45.534;6.212;2023-01-16T05:44:25;96778.19;;;0.42;55.92
76660;BME280;65579;45.534;6.212;2023-01-16T05:46:50;96786.95;;;0.80;55.26
76660;BME280;65579;45.534;6.212;2023-01-16T05:49:16;96779.00;;;1.51;52.79
76660;BME280;65579;45.534;6.212;2023-01-16T05:51:42;96764.41;;;1.43;51.68
76660;BME280;65579;45.534;6.212;2023-01-16T05:54:10;96756.42;;;1.85;51.10
76660;BME280;65579;45.534;6.212;2023-01-16T05:56:33;96756.19;;;1.70;51.59
76660;BME280;65579;45.534;6.212;2023-01-16T05:58:58;96762.03;;;1.32;51.23
76660;BME280;65579;45.534;6.212;2023-01-16T06:01:24;96757.14;;;2.19;50.28
76660;BME280;65579;45.534;6.212;2023-01-16T06:03:50;96743.70;;;1.32;51.39
76660;BME280;65579;45.534;6.212;2023-01-16T06:06:15;96730.20;;;1.30;52.92
76660;BME280;65579;45.534;6.212;2023-01-16T06:08:40;96726.19;;;1.24;51.95
76660;BME280;65579;45.534;6.212;2023-01-16T06:11:05;96740.29;;;1.18;51.64
76660;BME280;65579;45.534;6.212;2023-01-16T06:13:31;96748.67;;;2.73;51.01
76660;BME280;65579;45.534;6.212;2023-01-16T06:15:56;96747.99;;;1.69;52.02
76660;BME280;65579;45.534;6.212;2023-01-16T06:18:21;96747.53;;;1.33;53.88
76660;BME280;65579;45.534;6.212;2023-01-16T06:20:47;96747.63;;;1.53;51.27
76660;BME280;65579;45.534;6.212;2023-01-16T06:23:12;96735.02;;;1.17;52.62
76660;BME280;65579;45.534;6.212;2023-01-16T06:25:38;96724.92;;;1.27;51.87
76660;BME280;65579;45.534;6.212;2023-01-16T06:28:03;96707.89;;;2.63;50.60
76660;BME280;65579;45.534;6.212;2023-01-16T06:30:28;96710.24;;;2.74;49.75
76660;BME280;65579;45.534;6.212;2023-01-16T06:32:54;96713.31;;;0.80;52.32
76660;BME280;65579;45.534;6.212;2023-01-16T06:35:20;96709.54;;;1.03;53.12
76660;BME280;65579;45.534;6.212;2023-01-16T06:37:45;96719.61;;;0.67;56.48
76660;BME280;65579;45.534;6.212;2023-01-16T06:40:10;96708.01;;;0.29;58.39
76660;BME280;65579;45.534;6.212;2023-01-16T06:42:36;96705.67;;;-0.35;58.17
76660;BME280;65579;45.534;6.212;2023-01-16T06:45:01;96701.07;;;0.56;56.18
76660;BME280;65579;45.534;6.212;2023-01-16T06:47:27;96696.70;;;1.74;53.51
76660;BME280;65579;45.534;6.212;2023-01-16T06:49:52;96694.60;;;2.55;51.64
76660;BME280;65579;45.534;6.212;2023-01-16T06:52:17;96693.86;;;2.19;49.65
76660;BME280;65579;45.534;6.212;2023-01-16T06:54:43;96699.80;;;1.53;51.38
76660;BME280;65579;45.534;6.212;2023-01-16T06:57:09;96716.72;;;1.50;53.13
76660;BME280;65579;45.534;6.212;2023-01-16T06:59:34;96705.25;;;0.81;52.23
76660;BME280;65579;45.534;6.212;2023-01-16T07:02:00;96714.16;;;0.68;53.90
76660;BME280;65579;45.534;6.212;2023-01-16T07:04:26;96714.53;;;1.04;52.68
76660;BME280;65579;45.534;6.212;2023-01-16T07:06:51;96709.83;;;1.14;53.25
76660;BME280;65579;45.534;6.212;2023-01-16T07:09:17;96709.93;;;0.96;51.99
76660;BME280;65579;45.534;6.212;2023-01-16T07:11:42;96714.10;;;0.98;54.15
76660;BME280;65579;45.534;6.212;2023-01-16T07:14:08;96706.50;;;1.95;56.22
76660;BME280;65579;45.534;6.212;2023-01-16T07:16:34;96704.88;;;1.14;56.08
76660;BME280;65579;45.534;6.212;2023-01-16T07:18:59;96707.55;;;2.00;58.36
76660;BME280;65579;45.534;6.212;2023-01-16T07:21:28;96710.94;;;2.94;55.39
76660;BME280;65579;45.534;6.212;2023-01-16T07:23:52;96705.53;;;2.45;51.98
76660;BME280;65579;45.534;6.212;2023-01-16T07:26:16;96706.43;;;2.06;52.08
76660;BME280;65579;45.534;6.212;2023-01-16T07:28:41;96709.53;;;2.12;51.22
76660;BME280;65579;45.534;6.212;2023-01-16T07:31:07;96710.07;;;2.02;52.31
76660;BME280;65579;45.534;6.212;2023-01-16T07:33:31;96711.95;;;2.25;52.65
76660;BME280;65579;45.534;6.212;2023-01-16T07:35:57;96710.37;;;2.38;50.49
76660;BME280;65579;45.534;6.212;2023-01-16T07:38:22;96711.14;;;2.00;51.93
76660;BME280;65579;45.534;6.212;2023-01-16T07:40:48;96716.24;;;2.07;51.70
76660;BME280;65579;45.534;6.212;2023-01-16T07:43:14;96723.79;;;1.85;51.81
76660;BME280;65579;45.534;6.212;2023-01-16T07:45:39;96725.56;;;1.89;52.26
76660;BME280;65579;45.534;6.212;2023-01-16T07:48:05;96721.90;;;2.32;50.78
76660;BME280;65579;45.534;6.212;2023-01-16T07:50:30;96721.92;;;2.71;50.69
76660;BME280;65579;45.534;6.212;2023-01-16T07:52:56;96723.56;;;2.79;50.48
76660;BME280;65579;45.534;6.212;2023-01-16T07:55:22;96722.67;;;2.57;50.03
76660;BME280;65579;45.534;6.212;2023-01-16T07:57:47;96713.14;;;2.68;50.94
76660;BME280;65579;45.534;6.212;2023-01-16T08:00:13;96699.48;;;2.69;50.32
76660;BME280;65579;45.534;6.212;2023-01-16T08:02:38;96686.91;;;2.52;50.67
76660;BME280;65579;45.534;6.212;2023-01-16T08:05:03;96678.38;;;2.46;50.92
76660;BME280;65579;45.534;6.212;2023-01-16T08:07:28;96682.72;;;3.09;50.73
76660;BME280;65579;45.534;6.212;2023-01-16T08:09:53;96691.09;;;2.75;49.86
76660;BME280;65579;45.534;6.212;2023-01-16T08:12:19;96697.32;;;2.03;51.46
76660;BME280;65579;45.534;6.212;2023-01-16T08:14:44;96705.87;;;2.31;51.45
76660;BME280;65579;45.534;6.212;2023-01-16T08:17:10;96690.95;;;1.29;52.71
76660;BME280;65579;45.534;6.212;2023-01-16T08:19:35;96680.00;;;2.01;52.24
76660;BME280;65579;45.534;6.212;2023-01-16T08:22:01;96667.17;;;1.89;52.03
76660;BME280;65579;45.534;6.212;2023-01-16T08:24:26;96663.13;;;2.38;51.66
76660;BME280;65579;45.534;6.212;2023-01-16T08:26:52;96664.13;;;2.00;51.70
76660;BME280;65579;45.534;6.212;2023-01-16T08:29:17;96648.15;;;1.37;53.81
76660;BME280;65579;45.534;6.212;2023-01-16T08:31:43;96651.25;;;-0.03;59.31
76660;BME280;65579;45.534;6.212;2023-01-16T08:34:08;96632.27;;;-0.06;59.76
76660;BME280;65579;45.534;6.212;2023-01-16T08:36:34;96623.71;;;0.85;56.16
76660;BME280;65579;45.534;6.212;2023-01-16T08:39:00;96616.35;;;0.96;56.52
76660;BME280;65579;45.534;6.212;2023-01-16T08:41:25;96600.85;;;-0.42;62.23
76660;BME280;65579;45.534;6.212;2023-01-16T08:43:51;96612.85;;;-0.92;62.80
76660;BME280;65579;45.534;6.212;2023-01-16T08:46:19;96607.05;;;0.09;59.71
76660;BME280;65579;45.534;6.212;2023-01-16T08:48:42;96602.61;;;0.49;57.84
76660;BME280;65579;45.534;6.212;2023-01-16T08:51:14;96613.28;;;1.81;55.44
76660;BME280;65579;45.534;6.212;2023-01-16T08:53:33;96590.42;;;1.53;53.77
76660;BME280;65579;45.534;6.212;2023-01-16T08:55:58;96596.57;;;2.28;52.90
76660;BME280;65579;45.534;6.212;2023-01-16T08:58:23;96597.49;;;2.11;52.45
76660;BME280;65579;45.534;6.212;2023-01-16T09:00:49;96603.24;;;3.44;50.75
76660;BME280;65579;45.534;6.212;2023-01-16T09:03:14;96601.31;;;3.75;49.50
76660;BME280;65579;45.534;6.212;2023-01-16T09:05:39;96599.68;;;1.68;51.22
76660;BME280;65579;45.534;6.212;2023-01-16T09:08:05;96608.67;;;1.51;52.69
76660;BME280;65579;45.534;6.212;2023-01-16T09:10:30;96616.06;;;2.12;52.54
76660;BME280;65579;45.534;6.212;2023-01-16T09:12:55;96607.76;;;2.91;50.99
76660;BME280;65579;45.534;6.212;2023-01-16T09:15:21;96599.07;;;2.47;51.16
76660;BME280;65579;45.534;6.212;2023-01-16T09:17:47;96596.46;;;1.65;54.20
76660;BME280;65579;45.534;6.212;2023-01-16T09:20:13;96600.65;;;0.87;58.09
76660;BME280;65579;45.534;6.212;2023-01-16T09:22:38;96596.58;;;-0.08;59.73
76660;BME280;65579;45.534;6.212;2023-01-16T09:25:03;96600.89;;;0.60;57.55
76660;BME280;65579;45.534;6.212;2023-01-16T09:27:28;96609.81;;;0.80;56.90
76660;BME280;65579;45.534;6.212;2023-01-16T09:29:54;96615.55;;;0.61;59.00
76660;BME280;65579;45.534;6.212;2023-01-16T09:32:23;96601.36;;;0.37;59.44
76660;BME280;65579;45.534;6.212;2023-01-16T09:34:47;96590.31;;;1.17;55.70
76660;BME280;65579;45.534;6.212;2023-01-16T09:37:10;96576.51;;;1.47;54.07
76660;BME280;65579;45.534;6.212;2023-01-16T09:39:35;96570.57;;;2.22;52.81
76660;BME280;65579;45.534;6.212;2023-01-16T09:42:18;96557.32;;;1.73;53.19
76660;BME280;65579;45.534;6.212;2023-01-16T09:44:26;96557.86;;;0.85;55.92
76660;BME280;65579;45.534;6.212;2023-01-16T09:46:52;96558.75;;;0.76;58.80
76660;BME280;65579;45.534;6.212;2023-01-16T09:49:21;96567.61;;;-0.74;63.85
76660;BME280;65579;45.534;6.212;2023-01-16T09:51:45;96589.74;;;-1.01;65.91
76660;BME280;65579;45.534;6.212;2023-01-16T09:54:12;96573.29;;;-0.61;64.84
76660;BME280;65579;45.534;6.212;2023-01-16T09:56:38;96563.69;;;0.74;59.52
76660;BME280;65579;45.534;6.212;2023-01-16T09:59:12;96558.97;;;1.90;55.23
76660;BME280;65579;45.534;6.212;2023-01-16T10:01:29;96540.23;;;1.89;53.89
76660;BME280;65579;45.534;6.212;2023-01-16T10:04:03;96539.06;;;3.42;50.77
76660;BME280;65579;45.534;6.212;2023-01-16T10:06:20;96543.58;;;2.16;53.10
76660;BME280;65579;45.534;6.212;2023-01-16T10:08:47;96544.76;;;0.72;59.22
76660;BME280;65579;45.534;6.212;2023-01-16T10:11:13;96538.53;;;0.18;59.32
76660;BME280;65579;45.534;6.212;2023-01-16T10:13:45;96532.27;;;0.20;60.77
76660;BME280;65579;45.534;6.212;2023-01-16T10:16:02;96514.08;;;0.57;58.59
76660;BME280;65579;45.534;6.212;2023-01-16T10:18:30;96502.66;;;1.52;54.80
76660;BME280;65579;45.534;6.212;2023-01-16T10:21:00;96496.73;;;0.58;58.10
76660;BME280;65579;45.534;6.212;2023-01-16T10:23:27;96508.82;;;-0.03;60.33
76660;BME280;65579;45.534;6.212;2023-01-16T10:25:45;96511.01;;;-0.15;61.61
76660;BME280;65579;45.534;6.212;2023-01-16T10:28:15;96500.91;;;0.96;58.75
76660;BME280;65579;45.534;6.212;2023-01-16T10:30:34;96496.14;;;1.30;55.82
76660;BME280;65579;45.534;6.212;2023-01-16T10:33:02;96499.65;;;2.28;53.46
76660;BME280;65579;45.534;6.212;2023-01-16T10:35:24;96494.74;;;1.58;53.55
76660;BME280;65579;45.534;6.212;2023-01-16T10:37:46;96481.98;;;2.28;52.50
76660;BME280;65579;45.534;6.212;2023-01-16T10:40:16;96468.81;;;0.51;59.02
76660;BME280;65579;45.534;6.212;2023-01-16T10:42:40;96465.41;;;-0.41;62.99
76660;BME280;65579;45.534;6.212;2023-01-16T10:45:10;96464.99;;;-0.43;63.65
76660;BME280;65579;45.534;6.212;2023-01-16T10:47:31;96470.53;;;1.09;58.21
76660;BME280;65579;45.534;6.212;2023-01-16T10:49:53;96460.90;;;1.76;55.48
76660;BME280;65579;45.534;6.212;2023-01-16T10:52:19;96449.37;;;1.42;55.72
76660;BME280;65579;45.534;6.212;2023-01-16T10:54:45;96438.36;;;1.37;56.89
76660;BME280;65579;45.534;6.212;2023-01-16T10:57:16;96438.77;;;1.52;55.69
76660;BME280;65579;45.534;6.212;2023-01-16T10:59:38;96439.41;;;1.41;55.49
76660;BME280;65579;45.534;6.212;2023-01-16T11:02:11;96433.68;;;2.17;54.00
76660;BME280;65579;45.534;6.212;2023-01-16T11:04:33;96441.34;;;1.60;54.65
76660;BME280;65579;45.534;6.212;2023-01-16T11:09:20;96451.32;;;1.04;56.51
76660;BME280;65579;45.534;6.212;2023-01-16T11:11:44;96443.83;;;0.95;58.32
76660;BME280;65579;45.534;6.212;2023-01-16T11:14:13;96434.99;;;1.26;57.75
76660;BME280;65579;45.534;6.212;2023-01-16T11:16:34;96432.21;;;2.68;53.36
76660;BME280;65579;45.534;6.212;2023-01-16T11:21:29;96420.99;;;2.62;51.09
76660;BME280;65579;45.534;6.212;2023-01-16T11:23:56;96414.26;;;3.64;50.09
76660;BME280;65579;45.534;6.212;2023-01-16T11:26:16;96406.10;;;2.80;51.34
76660;BME280;65579;45.534;6.212;2023-01-16T11:28:46;96393.58;;;3.01;50.54
76660;BME280;65579;45.534;6.212;2023-01-16T11:31:13;96386.71;;;3.86;48.91
76660;BME280;65579;45.534;6.212;2023-01-16T11:33:35;96381.29;;;4.16;48.55
76660;BME280;65579;45.534;6.212;2023-01-16T11:36:01;96368.11;;;3.98;47.67
76660;BME280;65579;45.534;6.212;2023-01-16T11:38:27;96367.14;;;4.51;47.53
76660;BME280;65579;45.534;6.212;2023-01-16T11:40:52;96373.43;;;3.42;49.32
76660;BME280;65579;45.534;6.212;2023-01-16T11:43:17;96357.22;;;3.69;47.93
76660;BME280;65579;45.534;6.212;2023-01-16T11:45:44;96348.76;;;4.65;47.98
76660;BME280;65579;45.534;6.212;2023-01-16T11:48:08;96347.70;;;4.68;47.54
76660;BME280;65579;45.534;6.212;2023-01-16T11:50:34;96344.14;;;4.57;47.47
76660;BME280;65579;45.534;6.212;2023-01-16T11:52:57;96336.92;;;4.78;46.42
76660;BME280;65579;45.534;6.212;2023-01-16T11:55:28;96327.94;;;4.45;47.01
76660;BME280;65579;45.534;6.212;2023-01-16T11:57:52;96322.82;;;4.70;47.10
76660;BME280;65579;45.534;6.212;2023-01-16T12:00:25;96314.30;;;5.00;46.30
76660;BME280;65579;45.534;6.212;2023-01-16T12:02:51;96306.70;;;4.49;46.34
76660;BME280;65579;45.534;6.212;2023-01-16T12:05:12;96299.27;;;4.73;45.98
76660;BME280;65579;45.534;6.212;2023-01-16T12:07:39;96299.97;;;4.79;47.23
76660;BME280;65579;45.534;6.212;2023-01-16T12:09:59;96287.57;;;4.03;48.05
76660;BME280;65579;45.534;6.212;2023-01-16T12:12:30;96285.93;;;4.99;47.57
76660;BME280;65579;45.534;6.212;2023-01-16T12:14:51;96284.42;;;4.55;47.89
76660;BME280;65579;45.534;6.212;2023-01-16T12:17:17;96279.67;;;3.66;48.92
76660;BME280;65579;45.534;6.212;2023-01-16T12:19:49;96269.48;;;3.53;50.37
76660;BME280;65579;45.534;6.212;2023-01-16T12:22:11;96266.01;;;3.24;50.52
76660;BME280;65579;45.534;6.212;2023-01-16T12:24:37;96268.33;;;3.44;50.84
76660;BME280;65579;45.534;6.212;2023-01-16T12:27:07;96269.66;;;3.92;50.38
76660;BME280;65579;45.534;6.212;2023-01-16T12:29:29;96262.03;;;3.39;50.52
76660;BME280;65579;45.534;6.212;2023-01-16T12:32:02;96260.09;;;2.98;51.87
76660;BME280;65579;45.534;6.212;2023-01-16T12:34:27;96256.10;;;3.26;51.89
76660;BME280;65579;45.534;6.212;2023-01-16T12:36:40;96263.44;;;2.57;53.22
76660;BME280;65579;45.534;6.212;2023-01-16T12:39:06;96271.53;;;2.25;54.30
76660;BME280;65579;45.534;6.212;2023-01-16T12:41:29;96264.63;;;2.32;54.94
76660;BME280;65579;45.534;6.212;2023-01-16T12:44:01;96263.17;;;2.73;53.03
76660;BME280;65579;45.534;6.212;2023-01-16T12:46:21;96272.03;;;2.68;52.93
76660;BME280;65579;45.534;6.212;2023-01-16T12:48:53;96267.82;;;2.89;52.96
76660;BME280;65579;45.534;6.212;2023-01-16T12:51:18;96258.92;;;2.82;52.24
76660;BME280;65579;45.534;6.212;2023-01-16T12:53:54;96255.40;;;2.18;52.92
76660;BME280;65579;45.534;6.212;2023-01-16T12:56:06;96253.78;;;3.02;52.02
76660;BME280;65579;45.534;6.212;2023-01-16T12:58:28;96247.04;;;2.78;52.19
76660;BME280;65579;45.534;6.212;2023-01-16T13:00:53;96251.99;;;3.02;50.84
76660;BME280;65579;45.534;6.212;2023-01-16T13:03:21;96247.20;;;3.65;50.20
76660;BME280;65579;45.534;6.212;2023-01-16T13:05:43;96236.34;;;3.73;49.80